createdAt,value
2019-03-22T00:00:32.809Z,102538.26
2019-03-22T00:03:02.258Z,102538.13
2019-03-22T00:05:31.679Z,102539.44
2019-03-22T00:08:01.669Z,102533.27
2019-03-22T00:10:31.093Z,102528.23
2019-03-22T00:13:00.653Z,102531.81
2019-03-22T00:15:30.075Z,102527.73
2019-03-22T00:17:59.515Z,102529.72
2019-03-22T00:20:29.420Z,102529.62
2019-03-22T00:22:58.865Z,102522.23
2019-03-22T00:25:28.296Z,102518.49
2019-03-22T00:27:58.634Z,102516.92
2019-03-22T00:30:28.640Z,102520.15
2019-03-22T00:32:58.629Z,102519.52
2019-03-22T00:35:28.155Z,102515.06
2019-03-22T00:37:57.609Z,102517.00
2019-03-22T00:40:27.023Z,102510.17
2019-03-22T00:42:56.898Z,102510.53
2019-03-22T00:45:26.318Z,102508.95
2019-03-22T00:47:55.764Z,102508.26
2019-03-22T00:50:25.193Z,102494.94
2019-03-22T00:52:54.637Z,102496.38
2019-03-22T00:55:24.054Z,102493.19
2019-03-22T00:57:53.505Z,102485.08
2019-03-22T01:00:22.935Z,102496.30
2019-03-22T01:02:52.393Z,102495.02
2019-03-22T01:05:21.804Z,102489.80
2019-03-22T01:07:51.250Z,102487.19
2019-03-22T01:10:20.697Z,102489.00
2019-03-22T01:12:50.118Z,102493.45
2019-03-22T01:15:19.573Z,102496.91
2019-03-22T01:17:48.996Z,102499.07
2019-03-22T01:20:18.452Z,102510.33
2019-03-22T01:22:47.869Z,102498.75
2019-03-22T01:25:17.318Z,102508.72
2019-03-22T01:27:46.749Z,102511.70
2019-03-22T01:30:17.228Z,102510.13
2019-03-22T01:32:46.645Z,102509.64
2019-03-22T01:35:16.085Z,102517.55
2019-03-22T01:37:45.507Z,102512.30
2019-03-22T01:40:16.584Z,102517.09
2019-03-22T01:42:46.011Z,102512.33
2019-03-22T01:45:16.403Z,102521.44
2019-03-22T01:47:45.863Z,102519.13
2019-03-22T01:50:17.379Z,102519.55
2019-03-22T01:52:46.801Z,102519.62
2019-03-22T01:55:16.248Z,102523.33
2019-03-22T01:57:53.123Z,102516.79
2019-03-22T02:00:17.776Z,102514.88
2019-03-22T02:02:47.218Z,102507.36
2019-03-22T02:05:16.667Z,102515.00
2019-03-22T02:07:46.091Z,102510.39
2019-03-22T02:10:15.547Z,102506.03
2019-03-22T02:12:44.959Z,102504.75
2019-03-22T02:15:16.233Z,102513.86
2019-03-22T02:17:45.663Z,102506.76
2019-03-22T02:20:15.850Z,102507.09
2019-03-22T02:22:45.265Z,102498.20
2019-03-22T02:25:14.713Z,102490.41
2019-03-22T02:27:44.132Z,102486.29
2019-03-22T02:30:15.145Z,102481.23
2019-03-22T02:32:44.543Z,102490.92
2019-03-22T02:35:27.669Z,102493.88
2019-03-22T02:37:45.314Z,102500.89
2019-03-22T02:40:14.757Z,102505.51
2019-03-22T02:42:44.171Z,102513.28
2019-03-22T02:45:15.309Z,102508.48
2019-03-22T02:47:44.749Z,102514.59
2019-03-22T02:50:18.476Z,102511.37
2019-03-22T02:52:45.808Z,102509.62
2019-03-22T02:55:15.269Z,102506.17
2019-03-22T02:57:44.693Z,102508.77
2019-03-22T03:00:15.691Z,102506.59
2019-03-22T03:02:45.095Z,102502.23
2019-03-22T03:05:15.615Z,102510.95
2019-03-22T03:07:45.028Z,102513.70
2019-03-22T03:10:15.516Z,102510.17
2019-03-22T03:12:44.941Z,102507.64
2019-03-22T03:15:16.401Z,102508.20
2019-03-22T03:17:45.812Z,102514.41
2019-03-22T03:20:17.254Z,102511.94
2019-03-22T03:22:46.803Z,102507.89
2019-03-22T03:25:16.413Z,102520.44
2019-03-22T03:27:45.840Z,102529.77
2019-03-22T03:30:20.844Z,102534.53
2019-03-22T03:32:50.301Z,102534.97
2019-03-22T03:35:19.750Z,102531.58
2019-03-22T03:37:49.183Z,102531.50
2019-03-22T03:40:18.613Z,102535.91
2019-03-22T03:42:48.043Z,102543.52
2019-03-22T03:45:33.970Z,102546.86
2019-03-22T03:48:05.576Z,102545.55
2019-03-22T03:50:35.027Z,102541.91
2019-03-22T03:53:04.688Z,102537.30
2019-03-22T03:55:34.207Z,102531.86
2019-03-22T03:58:03.629Z,102533.30
2019-03-22T04:00:33.098Z,102544.02
2019-03-22T04:03:02.517Z,102550.86
2019-03-22T04:05:31.955Z,102552.83
2019-03-22T04:08:01.396Z,102557.19
2019-03-22T04:10:30.832Z,102564.88
2019-03-22T04:13:00.285Z,102560.61
2019-03-22T04:15:29.696Z,102563.13
2019-03-22T04:17:59.220Z,102578.27
2019-03-22T04:20:28.663Z,102582.63
2019-03-22T04:22:58.119Z,102589.08
2019-03-22T04:25:27.678Z,102590.27
2019-03-22T04:27:57.241Z,102597.52
2019-03-22T04:30:26.692Z,102597.94
2019-03-22T04:32:56.119Z,102599.08
2019-03-22T04:35:25.551Z,102596.83
2019-03-22T04:37:54.995Z,102597.35
2019-03-22T04:40:26.633Z,102601.97
2019-03-22T04:42:56.072Z,102594.95
2019-03-22T04:45:26.737Z,102604.10
2019-03-22T04:48:08.291Z,102608.44
2019-03-22T04:50:39.169Z,102610.16
2019-03-22T04:53:09.390Z,102618.80
2019-03-22T04:55:38.815Z,102617.91
2019-03-22T04:58:08.280Z,102625.16
2019-03-22T05:00:37.700Z,102632.58
2019-03-22T05:03:07.150Z,102631.16
2019-03-22T05:05:36.575Z,102625.25
2019-03-22T05:08:06.034Z,102632.58
2019-03-22T05:10:35.458Z,102638.94
2019-03-22T05:13:04.911Z,102646.39
2019-03-22T05:15:34.340Z,102652.51
2019-03-22T05:18:03.995Z,102645.47
2019-03-22T05:20:33.429Z,102652.84
2019-03-22T05:23:03.506Z,102651.92
2019-03-22T05:25:32.923Z,102654.98
2019-03-22T05:28:02.372Z,102655.67
2019-03-22T05:30:58.989Z,102657.03
2019-03-22T05:33:29.041Z,102658.26
2019-03-22T05:35:58.463Z,102664.34
2019-03-22T05:38:27.918Z,102672.10
2019-03-22T05:40:57.329Z,102666.39
2019-03-22T05:43:27.244Z,102661.00
2019-03-22T05:45:56.662Z,102664.98
2019-03-22T05:48:26.112Z,102663.17
2019-03-22T05:50:55.569Z,102656.89
2019-03-22T05:53:28.383Z,102656.00
2019-03-22T05:55:57.793Z,102661.86
2019-03-22T05:58:27.395Z,102654.38
2019-03-22T06:00:56.819Z,102660.02
2019-03-22T06:03:26.383Z,102655.56
2019-03-22T06:05:55.799Z,102656.72
2019-03-22T06:08:25.251Z,102652.80
2019-03-22T06:10:54.671Z,102639.34
2019-03-22T06:13:24.192Z,102643.48
2019-03-22T06:15:53.613Z,102634.33
2019-03-22T06:18:23.087Z,102622.92
2019-03-22T06:20:52.507Z,102635.55
2019-03-22T06:23:21.956Z,102635.69
2019-03-22T06:25:51.371Z,102638.60
2019-03-22T06:28:20.827Z,102658.45
2019-03-22T06:30:50.256Z,102656.00
2019-03-22T06:33:19.715Z,102658.02
2019-03-22T06:35:49.193Z,102669.25
2019-03-22T06:38:18.649Z,102671.30
2019-03-22T06:40:48.102Z,102661.48
2019-03-22T06:43:17.775Z,102664.13
2019-03-22T06:45:47.239Z,102660.08
2019-03-22T06:48:16.664Z,102659.15
2019-03-22T06:50:46.131Z,102672.06
2019-03-22T06:53:15.612Z,102667.25
2019-03-22T06:55:45.084Z,102666.11
2019-03-22T06:58:14.511Z,102673.67
2019-03-22T07:00:44.139Z,102674.28
2019-03-22T07:03:13.558Z,102674.85
2019-03-22T07:05:43.034Z,102692.73
2019-03-22T07:08:12.441Z,102691.13
2019-03-22T07:10:41.893Z,102688.16
2019-03-22T07:13:11.320Z,102683.75
2019-03-22T07:15:40.783Z,102696.64
2019-03-22T07:18:10.248Z,102707.84
2019-03-22T07:20:39.671Z,102700.09
2019-03-22T07:23:09.096Z,102709.25
2019-03-22T07:25:38.561Z,102705.81
2019-03-22T07:28:08.022Z,102698.78
2019-03-22T07:30:37.478Z,102699.78
2019-03-22T07:33:09.096Z,102697.47
2019-03-22T07:35:38.556Z,102700.47
2019-03-22T07:38:07.975Z,102699.58
2019-03-22T07:40:37.437Z,102710.30
2019-03-22T07:43:06.855Z,102709.66
2019-03-22T07:45:36.309Z,102709.49
2019-03-22T07:48:05.727Z,102710.05
2019-03-22T07:50:35.184Z,102712.56
2019-03-22T07:53:04.607Z,102714.57
2019-03-22T07:55:34.112Z,102711.70
2019-03-22T07:58:03.499Z,102713.81
2019-03-22T08:00:32.953Z,102712.88
2019-03-22T08:03:02.596Z,102706.71
2019-03-22T08:05:32.060Z,102706.06
2019-03-22T08:08:01.481Z,102707.33
2019-03-22T08:10:30.941Z,102704.33
2019-03-22T08:13:00.387Z,102697.98
2019-03-22T08:15:31.063Z,102693.05
2019-03-22T08:18:00.760Z,102685.43
2019-03-22T08:20:30.634Z,102683.70
2019-03-22T08:23:01.498Z,102686.00
2019-03-22T08:25:32.443Z,102692.41
2019-03-22T08:28:02.061Z,102690.92
2019-03-22T08:30:42.386Z,102700.83
2019-03-22T08:33:05.188Z,102704.21
2019-03-22T08:35:34.804Z,102711.36
2019-03-22T08:38:04.601Z,102714.70
2019-03-22T08:40:35.015Z,102713.84
2019-03-22T08:43:04.582Z,102726.31
2019-03-22T08:45:34.015Z,102723.59
2019-03-22T08:48:03.448Z,102720.45
2019-03-22T08:50:32.895Z,102726.31
2019-03-22T08:53:02.332Z,102725.31
2019-03-22T08:55:32.024Z,102724.69
2019-03-22T08:58:02.552Z,102722.95
2019-03-22T09:00:39.185Z,102725.34
2019-03-22T09:03:03.981Z,102729.62
2019-03-22T09:05:33.808Z,102731.80
2019-03-22T09:08:03.267Z,102728.31
2019-03-22T09:10:32.719Z,102713.89
2019-03-22T09:13:02.479Z,102716.06
2019-03-22T09:15:40.958Z,102717.13
2019-03-22T09:18:03.067Z,102718.80
2019-03-22T09:20:32.549Z,102725.63
2019-03-22T09:23:02.010Z,102729.67
2019-03-22T09:25:31.430Z,102732.36
2019-03-22T09:28:00.903Z,102726.45
2019-03-22T09:30:30.434Z,102717.72
2019-03-22T09:33:00.075Z,102724.05
2019-03-22T09:35:29.491Z,102728.25
2019-03-22T09:38:12.025Z,102723.98
2019-03-22T09:40:30.075Z,102723.20
2019-03-22T09:42:59.581Z,102733.91
2019-03-22T09:45:28.974Z,102727.69
2019-03-22T09:47:58.445Z,102725.26
2019-03-22T09:50:27.837Z,102727.88
2019-03-22T09:52:57.499Z,102727.88
2019-03-22T09:55:27.024Z,102724.29
2019-03-22T09:57:56.493Z,102717.63
2019-03-22T10:00:28.367Z,102719.16
2019-03-22T10:02:57.854Z,102715.11
2019-03-22T10:05:27.280Z,102715.11
2019-03-22T10:07:56.721Z,102711.52
2019-03-22T10:10:26.176Z,102716.23
2019-03-22T10:12:55.715Z,102722.30
2019-03-22T10:15:25.271Z,102716.53
2019-03-22T10:17:54.845Z,102714.81
2019-03-22T10:20:24.219Z,102708.44
2019-03-22T10:22:53.671Z,102703.19
2019-03-22T10:25:23.137Z,102707.23
2019-03-22T10:27:52.675Z,102708.47
2019-03-22T10:30:22.124Z,102709.30
2019-03-22T10:32:51.582Z,102708.47
2019-03-22T10:35:26.380Z,102707.91
2019-03-22T10:38:00.112Z,102713.78
2019-03-22T10:40:23.286Z,102714.75
2019-03-22T10:42:55.089Z,102706.02
2019-03-22T10:45:25.126Z,102703.23
2019-03-22T10:47:56.109Z,102695.23
2019-03-22T10:50:26.687Z,102701.03
2019-03-22T10:53:05.008Z,102704.23
2019-03-22T10:55:37.860Z,102699.59
2019-03-22T10:58:20.967Z,102703.58
2019-03-22T11:00:48.755Z,102700.50
2019-03-22T11:03:30.745Z,102697.63
2019-03-22T11:06:02.347Z,102698.00
2019-03-22T11:08:38.786Z,102693.27
2019-03-22T11:11:14.484Z,102691.43
2019-03-22T11:13:47.962Z,102690.53
2019-03-22T11:16:23.780Z,102688.77
2019-03-22T11:19:16.803Z,102695.91
2019-03-22T11:21:48.298Z,102687.54
2019-03-22T11:27:14.012Z,102677.17
2019-03-22T11:29:47.588Z,102678.77
2019-03-22T11:32:19.771Z,102679.67
2019-03-22T11:34:52.570Z,102679.80
2019-03-22T11:37:24.988Z,102681.52
2019-03-22T11:39:58.435Z,102677.70
2019-03-22T11:42:30.982Z,102672.77
2019-03-22T11:45:05.832Z,102680.85
2019-03-22T11:47:43.706Z,102673.27
2019-03-22T11:50:17.716Z,102675.80
2019-03-22T11:52:47.648Z,102670.63
2019-03-22T11:55:17.123Z,102663.33
2019-03-22T11:57:47.983Z,102667.47
2019-03-22T12:00:23.323Z,102667.59
2019-03-22T12:02:55.844Z,102667.43
2019-03-22T12:05:27.131Z,102663.98
2019-03-22T12:07:56.837Z,102667.92
2019-03-22T12:10:26.279Z,102662.44
2019-03-22T12:12:55.698Z,102659.72
2019-03-22T12:15:25.143Z,102660.05
2019-03-22T12:17:54.562Z,102656.06
2019-03-22T12:20:24.282Z,102655.22
2019-03-22T12:22:53.712Z,102655.62
2019-03-22T12:25:25.386Z,102656.94
2019-03-22T12:27:54.814Z,102658.58
2019-03-22T12:30:24.343Z,102659.89
2019-03-22T12:32:53.770Z,102655.50
2019-03-22T12:35:23.212Z,102658.08
2019-03-22T12:37:52.625Z,102659.03
2019-03-22T12:40:22.513Z,102664.11
2019-03-22T12:42:51.934Z,102662.23
2019-03-22T12:45:25.930Z,102654.52
2019-03-22T12:47:55.352Z,102662.10
2019-03-22T12:50:24.799Z,102661.08
2019-03-22T12:52:54.224Z,102659.69
2019-03-22T12:55:23.673Z,102652.05
2019-03-22T12:57:53.094Z,102660.87
2019-03-22T13:00:23.288Z,102656.56
2019-03-22T13:02:52.746Z,102654.42
2019-03-22T13:05:22.208Z,102646.80
2019-03-22T13:07:51.699Z,102647.08
2019-03-22T13:10:24.766Z,102649.94
2019-03-22T13:12:54.193Z,102651.47
2019-03-22T13:15:23.662Z,102654.91
2019-03-22T13:17:53.087Z,102649.90
2019-03-22T13:20:22.577Z,102658.03
2019-03-22T13:22:52.001Z,102654.38
2019-03-22T13:25:21.529Z,102661.39
2019-03-22T13:27:50.961Z,102655.16
2019-03-22T13:30:32.547Z,102652.99
2019-03-22T13:33:01.974Z,102647.82
2019-03-22T13:35:32.762Z,102642.93
2019-03-22T13:38:02.244Z,102641.78
2019-03-22T13:40:31.795Z,102642.28
2019-03-22T13:43:02.192Z,102639.28
2019-03-22T13:45:32.683Z,102641.78
2019-03-22T13:48:03.741Z,102633.91
2019-03-22T13:50:33.214Z,102628.59
2019-03-22T13:53:02.765Z,102632.19
2019-03-22T13:55:32.786Z,102637.31
2019-03-22T13:58:02.224Z,102628.42
2019-03-22T14:00:31.800Z,102626.25
2019-03-22T14:03:02.978Z,102623.74
2019-03-22T14:05:32.651Z,102623.45
2019-03-22T14:08:02.113Z,102628.59
2019-03-22T14:10:35.538Z,102618.83
2019-03-22T14:13:06.137Z,102621.16
2019-03-22T14:15:35.586Z,102619.61
2019-03-22T14:18:05.532Z,102611.86
2019-03-22T14:20:35.639Z,102609.23
2019-03-22T14:23:05.091Z,102606.48
2019-03-22T14:25:34.521Z,102607.80
2019-03-22T14:28:03.979Z,102613.13
2019-03-22T14:30:33.417Z,102609.92
2019-03-22T14:33:12.609Z,102609.84
2019-03-22T14:35:33.997Z,102603.69
2019-03-22T14:38:03.834Z,102597.30
2019-03-22T14:40:33.255Z,102597.62
2019-03-22T14:43:02.715Z,102592.91
2019-03-22T14:45:32.138Z,102587.00
2019-03-22T14:48:02.083Z,102587.45
2019-03-22T14:50:31.509Z,102591.23
2019-03-22T14:53:00.964Z,102590.85
2019-03-22T14:55:30.390Z,102590.03
2019-03-22T14:57:59.846Z,102591.34
2019-03-22T15:00:29.284Z,102585.44
2019-03-22T15:02:58.732Z,102583.63
2019-03-22T15:05:28.155Z,102583.70
2019-03-22T15:07:57.604Z,102583.47
2019-03-22T15:10:27.024Z,102575.31
2019-03-22T15:12:56.484Z,102579.44
2019-03-22T15:15:27.957Z,102577.51
2019-03-22T15:18:02.043Z,102574.38
2019-03-22T15:20:33.103Z,102574.83
2019-03-22T15:23:16.070Z,102577.20
2019-03-22T15:25:49.580Z,102576.14
2019-03-22T15:28:37.072Z,102573.76
2019-03-22T15:31:08.139Z,102577.47
2019-03-22T15:33:55.147Z,102573.50
2019-03-22T15:36:42.140Z,102574.52
2019-03-22T15:39:19.410Z,102572.46
2019-03-22T15:41:48.928Z,102575.94
2019-03-22T15:44:18.489Z,102575.71
2019-03-22T15:46:48.002Z,102577.75
2019-03-22T15:49:17.450Z,102580.33
2019-03-22T15:51:48.804Z,102569.88
2019-03-22T15:54:18.029Z,102570.78
2019-03-22T15:56:47.461Z,102569.80
2019-03-22T15:59:16.916Z,102567.51
2019-03-22T16:01:46.379Z,102573.09
2019-03-22T16:04:15.810Z,102572.19
2019-03-22T16:06:45.258Z,102574.59
2019-03-22T16:09:14.685Z,102567.17
2019-03-22T16:11:44.135Z,102573.62
2019-03-22T16:14:13.555Z,102569.16
2019-03-22T16:16:43.009Z,102565.95
2019-03-22T16:19:12.433Z,102571.23
2019-03-22T16:21:41.888Z,102564.87
2019-03-22T16:24:11.324Z,102556.45
2019-03-22T16:26:40.781Z,102559.22
2019-03-22T16:29:10.213Z,102551.58
2019-03-22T16:31:39.677Z,102555.73
2019-03-22T16:34:09.112Z,102545.66
2019-03-22T16:36:38.564Z,102547.75
2019-03-22T16:39:08.774Z,102546.52
2019-03-22T16:41:38.236Z,102550.98
2019-03-22T16:44:07.673Z,102552.41
2019-03-22T16:46:37.129Z,102550.80
2019-03-22T16:49:06.943Z,102549.30
2019-03-22T16:51:36.400Z,102551.13
2019-03-22T16:54:05.835Z,102548.59
2019-03-22T16:56:35.775Z,102545.03
2019-03-22T16:59:05.198Z,102539.79
2019-03-22T17:01:34.953Z,102542.37
2019-03-22T17:04:04.887Z,102543.34
2019-03-22T17:06:34.947Z,102546.57
2019-03-22T17:09:05.738Z,102546.76
2019-03-22T17:11:35.197Z,102541.30
2019-03-22T17:14:04.949Z,102541.22
2019-03-22T17:16:34.366Z,102540.81
2019-03-22T17:19:04.001Z,102543.20
2019-03-22T17:21:33.435Z,102543.31
2019-03-22T17:24:02.906Z,102536.05
2019-03-22T17:26:32.767Z,102531.25
2019-03-22T17:29:02.224Z,102532.89
2019-03-22T17:31:31.648Z,102530.19
2019-03-22T17:34:01.094Z,102539.11
2019-03-22T17:36:30.514Z,102535.50
2019-03-22T17:38:59.965Z,102548.25
2019-03-22T17:41:29.399Z,102539.84
2019-03-22T17:43:58.840Z,102538.81
2019-03-22T17:46:28.279Z,102541.28
2019-03-22T17:48:57.725Z,102532.02
2019-03-22T17:51:27.142Z,102535.45
2019-03-22T17:53:56.600Z,102537.43
2019-03-22T17:56:26.023Z,102541.58
2019-03-22T17:58:55.471Z,102542.73
2019-03-22T18:01:24.889Z,102542.15
2019-03-22T18:03:54.335Z,102543.45
2019-03-22T18:06:23.783Z,102548.30
2019-03-22T18:08:53.233Z,102550.91
2019-03-22T18:11:22.653Z,102547.86
2019-03-22T18:13:52.112Z,102546.67
2019-03-22T18:16:21.538Z,102546.67
2019-03-22T18:18:50.993Z,102544.41
2019-03-22T18:21:20.418Z,102547.98
2019-03-22T18:23:50.076Z,102544.28
2019-03-22T18:26:19.515Z,102544.28
2019-03-22T18:28:48.968Z,102538.13
2019-03-22T18:31:18.393Z,102541.25
2019-03-22T18:33:47.843Z,102542.30
2019-03-22T18:36:17.266Z,102539.63
2019-03-22T18:38:46.714Z,102534.14
2019-03-22T18:41:16.139Z,102525.34
2019-03-22T18:43:45.602Z,102526.36
2019-03-22T18:46:15.021Z,102524.52
2019-03-22T18:48:44.474Z,102520.98
2019-03-22T18:51:13.902Z,102527.39
2019-03-22T18:53:43.353Z,102518.08
2019-03-22T18:56:12.769Z,102510.23
2019-03-22T18:58:42.424Z,102508.29
2019-03-22T19:01:11.848Z,102508.98
2019-03-22T19:03:41.310Z,102512.02
2019-03-22T19:06:10.746Z,102508.03
2019-03-22T19:08:40.202Z,102508.80
2019-03-22T19:11:09.639Z,102507.39
2019-03-22T19:13:39.099Z,102511.66
2019-03-22T19:16:08.550Z,102508.22
2019-03-22T19:18:39.452Z,102504.19
2019-03-22T19:21:08.912Z,102498.03
2019-03-22T19:23:38.335Z,102494.94
2019-03-22T19:26:07.795Z,102489.77
2019-03-22T19:28:37.223Z,102495.00
2019-03-22T19:31:06.969Z,102493.25
2019-03-22T19:33:36.923Z,102487.67
2019-03-22T19:36:06.387Z,102483.78
2019-03-22T19:38:35.815Z,102487.19
2019-03-22T19:41:05.264Z,102486.20
2019-03-22T19:43:34.696Z,102483.06
2019-03-22T19:46:04.327Z,102476.42
2019-03-22T19:48:34.098Z,102469.20
2019-03-22T19:51:03.606Z,102473.30
2019-03-22T19:53:33.039Z,102472.50
2019-03-22T19:56:02.518Z,102458.34
2019-03-22T19:58:31.939Z,102460.52
2019-03-22T20:01:02.011Z,102460.97
2019-03-22T20:03:31.440Z,102462.52
2019-03-22T20:06:00.891Z,102461.55
2019-03-22T20:08:30.330Z,102451.70
2019-03-22T20:11:00.287Z,102450.50
2019-03-22T20:13:29.722Z,102453.11
2019-03-22T20:15:59.169Z,102453.67
2019-03-22T20:18:28.598Z,102451.50
2019-03-22T20:20:58.058Z,102449.60
2019-03-22T20:23:27.496Z,102451.05
2019-03-22T20:25:56.939Z,102451.13
2019-03-22T20:28:26.366Z,102444.52
2019-03-22T20:30:55.847Z,102447.84
2019-03-22T20:33:25.244Z,102447.33
2019-03-22T20:35:54.714Z,102445.57
2019-03-22T20:38:24.170Z,102439.89
2019-03-22T20:40:53.620Z,102438.30
2019-03-22T20:43:23.042Z,102440.39
2019-03-22T20:45:52.488Z,102435.77
2019-03-22T20:48:21.916Z,102429.27
2019-03-22T20:50:51.360Z,102426.86
2019-03-22T20:53:20.779Z,102434.66
2019-03-22T20:55:50.231Z,102433.45
2019-03-22T20:58:19.649Z,102431.43
2019-03-22T21:00:49.123Z,102428.27
2019-03-22T21:03:18.550Z,102426.50
2019-03-22T21:05:47.999Z,102421.79
2019-03-22T21:08:17.418Z,102423.60
2019-03-22T21:10:46.872Z,102422.36
2019-03-22T21:13:16.292Z,102419.64
2019-03-22T21:15:45.748Z,102417.13
2019-03-22T21:18:15.199Z,102410.25
2019-03-22T21:20:44.650Z,102411.48
2019-03-22T21:23:14.091Z,102413.72
2019-03-22T21:25:43.515Z,102410.80
2019-03-22T21:28:12.969Z,102410.28
2019-03-22T21:30:42.391Z,102413.99
2019-03-22T21:33:11.847Z,102408.66
2019-03-22T21:35:41.427Z,102405.77
2019-03-22T21:38:11.482Z,102414.41
2019-03-22T21:40:41.003Z,102414.44
2019-03-22T21:43:10.487Z,102418.22
2019-03-22T21:45:39.913Z,102424.09
2019-03-22T21:48:09.379Z,102411.05
2019-03-22T21:50:38.904Z,102411.56
2019-03-22T21:53:08.368Z,102420.55
2019-03-22T21:55:37.799Z,102418.59
2019-03-22T21:58:07.258Z,102411.12
2019-03-22T22:00:37.194Z,102408.02
2019-03-22T22:03:06.643Z,102405.92
2019-03-22T22:05:36.071Z,102404.16
2019-03-22T22:08:06.002Z,102409.41
2019-03-22T22:10:35.426Z,102402.73
2019-03-22T22:13:05.203Z,102404.39
2019-03-22T22:15:34.631Z,102398.70
2019-03-22T22:18:04.078Z,102391.53
2019-03-22T22:20:33.504Z,102393.25
2019-03-22T22:23:03.569Z,102394.37
2019-03-22T22:25:32.986Z,102384.94
2019-03-22T22:28:03.092Z,102383.90
2019-03-22T22:30:32.524Z,102387.04
2019-03-22T22:33:02.147Z,102379.19
2019-03-22T22:35:31.569Z,102377.88
2019-03-22T22:38:01.023Z,102375.60
2019-03-22T22:40:30.754Z,102377.88
2019-03-22T22:43:00.415Z,102376.27
2019-03-22T22:45:29.845Z,102376.05
2019-03-22T22:47:59.296Z,102371.59
2019-03-22T22:50:28.714Z,102363.06
2019-03-22T22:52:58.157Z,102371.78
2019-03-22T22:55:27.583Z,102374.16
2019-03-22T22:57:57.041Z,102362.95
2019-03-22T23:00:27.859Z,102365.97
2019-03-22T23:02:57.297Z,102354.80
2019-03-22T23:05:26.722Z,102366.78
2019-03-22T23:07:56.176Z,102367.81
2019-03-22T23:10:25.597Z,102365.58
2019-03-22T23:12:55.051Z,102361.77
2019-03-22T23:15:24.543Z,102353.09
2019-03-22T23:17:54.007Z,102354.81
2019-03-22T23:20:23.444Z,102347.48
2019-03-22T23:22:52.909Z,102335.83
2019-03-22T23:25:22.342Z,102339.97
2019-03-22T23:27:51.792Z,102336.25
2019-03-22T23:30:21.213Z,102328.72
2019-03-22T23:32:50.662Z,102326.42
2019-03-22T23:35:20.083Z,102319.78
2019-03-22T23:37:49.529Z,102321.36
2019-03-22T23:40:18.972Z,102320.11
2019-03-22T23:42:48.390Z,102320.80
2019-03-22T23:45:17.836Z,102313.58
2019-03-22T23:47:47.253Z,102307.91
2019-03-22T23:50:16.694Z,102312.43
2019-03-22T23:52:46.125Z,102317.84
2019-03-22T23:55:15.582Z,102310.29
2019-03-22T23:57:45.010Z,102315.31
